sensor_id;sensor_type;location;lat;lon;timestamp;P1;durP1;ratioP1;P2;durP2;ratioP2
1306;SDS011;646;48.696;9.114;2022-07-06T00:00:59;4.80;;;4.43;;
1306;SDS011;646;48.696;9.114;2022-07-06T00:03:25;4.80;;;4.50;;
1306;SDS011;646;48.696;9.114;2022-07-06T00:05:50;5.67;;;4.50;;
1306;SDS011;646;48.696;9.114;2022-07-06T00:08:16;5.47;;;5.07;;
1306;SDS011;646;48.696;9.114;2022-07-06T00:10:41;4.93;;;4.63;;
1306;SDS011;646;48.696;9.114;2022-07-06T00:13:07;5.37;;;4.97;;
1306;SDS011;646;48.696;9.114;2022-07-06T00:15:33;5.33;;;4.90;;
1306;SDS011;646;48.696;9.114;2022-07-06T00:17:58;5.10;;;4.80;;
1306;SDS011;646;48.696;9.114;2022-07-06T00:20:23;5.27;;;4.97;;
1306;SDS011;646;48.696;9.114;2022-07-06T00:22:49;5.20;;;4.90;;
1306;SDS011;646;48.696;9.114;2022-07-06T00:25:15;5.60;;;5.23;;
1306;SDS011;646;48.696;9.114;2022-07-06T00:27:40;5.07;;;4.67;;
1306;SDS011;646;48.696;9.114;2022-07-06T00:30:06;5.40;;;5.10;;
1306;SDS011;646;48.696;9.114;2022-07-06T00:32:32;5.50;;;5.10;;
1306;SDS011;646;48.696;9.114;2022-07-06T00:34:58;5.77;;;5.37;;
1306;SDS011;646;48.696;9.114;2022-07-06T00:37:23;5.37;;;4.97;;
1306;SDS011;646;48.696;9.114;2022-07-06T00:39:49;5.90;;;5.40;;
1306;SDS011;646;48.696;9.114;2022-07-06T00:42:14;6.27;;;5.77;;
1306;SDS011;646;48.696;9.114;2022-07-06T00:44:40;5.70;;;5.30;;
1306;SDS011;646;48.696;9.114;2022-07-06T00:47:06;5.93;;;5.43;;
1306;SDS011;646;48.696;9.114;2022-07-06T00:49:32;6.10;;;5.70;;
1306;SDS011;646;48.696;9.114;2022-07-06T00:52:17;5.83;;;5.33;;
1306;SDS011;646;48.696;9.114;2022-07-06T00:54:43;5.97;;;5.57;;
1306;SDS011;646;48.696;9.114;2022-07-06T00:57:10;5.80;;;5.40;;
1306;SDS011;646;48.696;9.114;2022-07-06T00:59:35;5.73;;;5.33;;
1306;SDS011;646;48.696;9.114;2022-07-06T01:02:01;6.00;;;5.50;;
1306;SDS011;646;48.696;9.114;2022-07-06T01:04:27;6.27;;;5.70;;
1306;SDS011;646;48.696;9.114;2022-07-06T01:06:53;6.33;;;5.87;;
1306;SDS011;646;48.696;9.114;2022-07-06T01:09:18;5.80;;;5.40;;
1306;SDS011;646;48.696;9.114;2022-07-06T01:11:44;6.20;;;5.70;;
1306;SDS011;646;48.696;9.114;2022-07-06T01:14:09;5.70;;;5.37;;
1306;SDS011;646;48.696;9.114;2022-07-06T01:16:37;6.00;;;5.60;;
1306;SDS011;646;48.696;9.114;2022-07-06T01:19:03;6.60;;;6.10;;
1306;SDS011;646;48.696;9.114;2022-07-06T01:21:28;6.27;;;5.87;;
1306;SDS011;646;48.696;9.114;2022-07-06T01:23:54;7.00;;;6.50;;
1306;SDS011;646;48.696;9.114;2022-07-06T01:26:20;6.50;;;6.00;;
1306;SDS011;646;48.696;9.114;2022-07-06T01:28:47;7.00;;;6.50;;
1306;SDS011;646;48.696;9.114;2022-07-06T01:31:15;6.50;;;6.07;;
1306;SDS011;646;48.696;9.114;2022-07-06T01:33:48;6.30;;;5.80;;
1306;SDS011;646;48.696;9.114;2022-07-06T01:36:14;6.50;;;6.00;;
1306;SDS011;646;48.696;9.114;2022-07-06T01:38:50;6.73;;;6.07;;
1306;SDS011;646;48.696;9.114;2022-07-06T01:41:17;6.27;;;5.87;;
1306;SDS011;646;48.696;9.114;2022-07-06T01:43:44;6.33;;;5.90;;
1306;SDS011;646;48.696;9.114;2022-07-06T01:46:10;6.07;;;5.70;;
1306;SDS011;646;48.696;9.114;2022-07-06T01:48:36;6.63;;;6.17;;
1306;SDS011;646;48.696;9.114;2022-07-06T01:51:02;7.00;;;6.50;;
1306;SDS011;646;48.696;9.114;2022-07-06T01:53:28;6.67;;;6.17;;
1306;SDS011;646;48.696;9.114;2022-07-06T01:55:54;7.23;;;6.50;;
1306;SDS011;646;48.696;9.114;2022-07-06T01:58:19;6.40;;;6.00;;
1306;SDS011;646;48.696;9.114;2022-07-06T02:00:44;6.43;;;6.03;;
1306;SDS011;646;48.696;9.114;2022-07-06T02:03:10;6.47;;;6.07;;
1306;SDS011;646;48.696;9.114;2022-07-06T02:05:35;6.60;;;6.20;;
1306;SDS011;646;48.696;9.114;2022-07-06T02:08:01;6.50;;;5.90;;
1306;SDS011;646;48.696;9.114;2022-07-06T02:10:26;7.30;;;6.70;;
1306;SDS011;646;48.696;9.114;2022-07-06T02:12:52;6.13;;;5.67;;
1306;SDS011;646;48.696;9.114;2022-07-06T02:15:17;6.40;;;5.90;;
1306;SDS011;646;48.696;9.114;2022-07-06T02:17:43;7.50;;;6.93;;
1306;SDS011;646;48.696;9.114;2022-07-06T02:20:08;6.93;;;6.33;;
1306;SDS011;646;48.696;9.114;2022-07-06T02:22:34;6.30;;;5.80;;
1306;SDS011;646;48.696;9.114;2022-07-06T02:25:00;6.20;;;5.77;;
1306;SDS011;646;48.696;9.114;2022-07-06T02:27:25;6.20;;;5.73;;
1306;SDS011;646;48.696;9.114;2022-07-06T02:29:51;6.40;;;5.90;;
1306;SDS011;646;48.696;9.114;2022-07-06T02:32:16;6.60;;;6.10;;
1306;SDS011;646;48.696;9.114;2022-07-06T02:34:42;6.03;;;5.53;;
1306;SDS011;646;48.696;9.114;2022-07-06T02:37:08;7.00;;;6.40;;
1306;SDS011;646;48.696;9.114;2022-07-06T02:39:33;7.00;;;6.50;;
1306;SDS011;646;48.696;9.114;2022-07-06T02:41:59;6.30;;;5.90;;
1306;SDS011;646;48.696;9.114;2022-07-06T02:44:24;6.60;;;6.10;;
1306;SDS011;646;48.696;9.114;2022-07-06T02:46:50;6.33;;;5.83;;
1306;SDS011;646;48.696;9.114;2022-07-06T02:49:15;6.77;;;6.27;;
1306;SDS011;646;48.696;9.114;2022-07-06T02:51:41;6.60;;;6.13;;
1306;SDS011;646;48.696;9.114;2022-07-06T02:54:06;6.93;;;6.43;;
1306;SDS011;646;48.696;9.114;2022-07-06T02:56:32;6.77;;;6.27;;
1306;SDS011;646;48.696;9.114;2022-07-06T02:58:57;5.87;;;5.47;;
1306;SDS011;646;48.696;9.114;2022-07-06T03:01:23;6.70;;;6.10;;
1306;SDS011;646;48.696;9.114;2022-07-06T03:03:48;6.17;;;5.67;;
1306;SDS011;646;48.696;9.114;2022-07-06T03:06:14;6.37;;;5.97;;
1306;SDS011;646;48.696;9.114;2022-07-06T03:08:40;6.03;;;5.53;;
1306;SDS011;646;48.696;9.114;2022-07-06T03:11:05;6.10;;;5.70;;
1306;SDS011;646;48.696;9.114;2022-07-06T03:13:31;7.00;;;6.50;;
1306;SDS011;646;48.696;9.114;2022-07-06T03:15:56;6.37;;;5.80;;
1306;SDS011;646;48.696;9.114;2022-07-06T03:18:22;6.60;;;6.10;;
1306;SDS011;646;48.696;9.114;2022-07-06T03:20:47;6.13;;;5.73;;
1306;SDS011;646;48.696;9.114;2022-07-06T03:23:13;7.03;;;6.53;;
1306;SDS011;646;48.696;9.114;2022-07-06T03:25:38;6.70;;;6.23;;
1306;SDS011;646;48.696;9.114;2022-07-06T03:28:04;6.20;;;5.80;;
1306;SDS011;646;48.696;9.114;2022-07-06T03:30:29;6.37;;;5.97;;
1306;SDS011;646;48.696;9.114;2022-07-06T03:32:55;6.20;;;5.80;;
1306;SDS011;646;48.696;9.114;2022-07-06T03:35:20;7.27;;;6.73;;
1306;SDS011;646;48.696;9.114;2022-07-06T03:37:46;7.30;;;6.70;;
1306;SDS011;646;48.696;9.114;2022-07-06T03:40:12;6.50;;;5.90;;
1306;SDS011;646;48.696;9.114;2022-07-06T03:42:38;6.33;;;5.83;;
1306;SDS011;646;48.696;9.114;2022-07-06T03:45:04;7.20;;;6.77;;
1306;SDS011;646;48.696;9.114;2022-07-06T03:47:30;7.30;;;6.80;;
1306;SDS011;646;48.696;9.114;2022-07-06T03:49:56;6.63;;;6.13;;
1306;SDS011;646;48.696;9.114;2022-07-06T03:52:21;7.13;;;6.63;;
1306;SDS011;646;48.696;9.114;2022-07-06T03:54:47;6.63;;;6.23;;
1306;SDS011;646;48.696;9.114;2022-07-06T03:57:12;7.43;;;6.83;;
1306;SDS011;646;48.696;9.114;2022-07-06T03:59:39;9.27;;;6.57;;
1306;SDS011;646;48.696;9.114;2022-07-06T04:02:04;6.57;;;5.97;;
1306;SDS011;646;48.696;9.114;2022-07-06T04:04:30;6.40;;;5.93;;
1306;SDS011;646;48.696;9.114;2022-07-06T04:06:56;6.47;;;5.87;;
1306;SDS011;646;48.696;9.114;2022-07-06T04:09:21;7.10;;;6.50;;
1306;SDS011;646;48.696;9.114;2022-07-06T04:11:47;7.20;;;6.70;;
1306;SDS011;646;48.696;9.114;2022-07-06T04:14:12;7.90;;;7.30;;
1306;SDS011;646;48.696;9.114;2022-07-06T04:16:38;8.87;;;7.97;;
1306;SDS011;646;48.696;9.114;2022-07-06T04:19:03;7.27;;;6.77;;
1306;SDS011;646;48.696;9.114;2022-07-06T04:21:29;6.83;;;6.33;;
1306;SDS011;646;48.696;9.114;2022-07-06T04:23:55;6.90;;;6.30;;
1306;SDS011;646;48.696;9.114;2022-07-06T04:26:20;7.33;;;6.77;;
1306;SDS011;646;48.696;9.114;2022-07-06T04:28:46;6.53;;;6.03;;
1306;SDS011;646;48.696;9.114;2022-07-06T04:31:11;7.90;;;7.30;;
1306;SDS011;646;48.696;9.114;2022-07-06T04:33:40;6.93;;;6.43;;
1306;SDS011;646;48.696;9.114;2022-07-06T04:36:06;7.20;;;6.70;;
1306;SDS011;646;48.696;9.114;2022-07-06T04:38:32;8.20;;;7.57;;
1306;SDS011;646;48.696;9.114;2022-07-06T04:40:57;7.77;;;7.10;;
1306;SDS011;646;48.696;9.114;2022-07-06T04:43:23;8.50;;;7.80;;
1306;SDS011;646;48.696;9.114;2022-07-06T04:45:48;7.50;;;7.00;;
1306;SDS011;646;48.696;9.114;2022-07-06T04:48:14;8.10;;;7.50;;
1306;SDS011;646;48.696;9.114;2022-07-06T04:50:39;9.27;;;8.67;;
1306;SDS011;646;48.696;9.114;2022-07-06T04:53:05;8.03;;;7.43;;
1306;SDS011;646;48.696;9.114;2022-07-06T04:55:31;7.63;;;6.93;;
1306;SDS011;646;48.696;9.114;2022-07-06T04:57:56;7.70;;;7.00;;
1306;SDS011;646;48.696;9.114;2022-07-06T05:00:22;9.27;;;8.37;;
1306;SDS011;646;48.696;9.114;2022-07-06T05:02:47;8.33;;;7.63;;
1306;SDS011;646;48.696;9.114;2022-07-06T05:05:13;8.67;;;7.97;;
1306;SDS011;646;48.696;9.114;2022-07-06T05:07:38;8.37;;;7.73;;
1306;SDS011;646;48.696;9.114;2022-07-06T05:10:08;8.60;;;8.00;;
1306;SDS011;646;48.696;9.114;2022-07-06T05:12:34;8.53;;;7.77;;
1306;SDS011;646;48.696;9.114;2022-07-06T05:15:00;8.47;;;7.80;;
1306;SDS011;646;48.696;9.114;2022-07-06T05:17:26;8.30;;;7.63;;
1306;SDS011;646;48.696;9.114;2022-07-06T05:19:51;7.13;;;6.63;;
1306;SDS011;646;48.696;9.114;2022-07-06T05:22:17;8.03;;;7.33;;
1306;SDS011;646;48.696;9.114;2022-07-06T05:24:43;9.10;;;8.40;;
1306;SDS011;646;48.696;9.114;2022-07-06T05:27:09;7.33;;;6.73;;
1306;SDS011;646;48.696;9.114;2022-07-06T05:29:35;7.00;;;6.40;;
1306;SDS011;646;48.696;9.114;2022-07-06T05:32:01;7.43;;;6.83;;
1306;SDS011;646;48.696;9.114;2022-07-06T05:34:27;7.20;;;6.70;;
1306;SDS011;646;48.696;9.114;2022-07-06T05:36:52;6.40;;;5.90;;
1306;SDS011;646;48.696;9.114;2022-07-06T05:39:18;6.27;;;5.77;;
1306;SDS011;646;48.696;9.114;2022-07-06T05:41:46;7.20;;;6.67;;
1306;SDS011;646;48.696;9.114;2022-07-06T05:44:11;6.30;;;5.70;;
1306;SDS011;646;48.696;9.114;2022-07-06T05:46:37;6.57;;;6.17;;
1306;SDS011;646;48.696;9.114;2022-07-06T05:49:03;5.63;;;5.30;;
1306;SDS011;646;48.696;9.114;2022-07-06T05:51:47;5.57;;;5.17;;
1306;SDS011;646;48.696;9.114;2022-07-06T05:54:12;6.00;;;5.50;;
1306;SDS011;646;48.696;9.114;2022-07-06T05:56:38;5.50;;;5.10;;
1306;SDS011;646;48.696;9.114;2022-07-06T05:59:03;5.50;;;5.10;;
1306;SDS011;646;48.696;9.114;2022-07-06T06:01:29;5.43;;;4.97;;
1306;SDS011;646;48.696;9.114;2022-07-06T06:03:54;5.10;;;4.70;;
1306;SDS011;646;48.696;9.114;2022-07-06T06:06:28;4.80;;;4.50;;
1306;SDS011;646;48.696;9.114;2022-07-06T06:08:56;5.57;;;5.17;;
1306;SDS011;646;48.696;9.114;2022-07-06T06:11:21;5.53;;;5.13;;
1306;SDS011;646;48.696;9.114;2022-07-06T06:13:47;5.07;;;4.60;;
1306;SDS011;646;48.696;9.114;2022-07-06T06:16:12;5.10;;;4.80;;
1306;SDS011;646;48.696;9.114;2022-07-06T06:18:38;4.70;;;4.40;;
1306;SDS011;646;48.696;9.114;2022-07-06T06:21:03;4.43;;;4.13;;
1306;SDS011;646;48.696;9.114;2022-07-06T06:23:29;4.80;;;4.40;;
1306;SDS011;646;48.696;9.114;2022-07-06T06:25:54;4.40;;;4.10;;
1306;SDS011;646;48.696;9.114;2022-07-06T06:28:20;4.63;;;4.20;;
1306;SDS011;646;48.696;9.114;2022-07-06T06:30:45;5.10;;;4.80;;
1306;SDS011;646;48.696;9.114;2022-07-06T06:33:12;4.93;;;4.50;;
1306;SDS011;646;48.696;9.114;2022-07-06T06:35:42;4.60;;;4.30;;
1306;SDS011;646;48.696;9.114;2022-07-06T06:38:10;4.63;;;4.20;;
1306;SDS011;646;48.696;9.114;2022-07-06T06:40:36;4.20;;;3.90;;
1306;SDS011;646;48.696;9.114;2022-07-06T06:43:02;3.80;;;3.50;;
1306;SDS011;646;48.696;9.114;2022-07-06T06:45:28;4.00;;;3.70;;
1306;SDS011;646;48.696;9.114;2022-07-06T06:47:53;4.87;;;4.57;;
1306;SDS011;646;48.696;9.114;2022-07-06T06:50:19;3.77;;;3.57;;
1306;SDS011;646;48.696;9.114;2022-07-06T06:52:44;4.50;;;4.10;;
1306;SDS011;646;48.696;9.114;2022-07-06T06:55:10;4.37;;;4.07;;
1306;SDS011;646;48.696;9.114;2022-07-06T06:57:35;4.47;;;4.13;;
1306;SDS011;646;48.696;9.114;2022-07-06T07:00:02;4.63;;;4.23;;
1306;SDS011;646;48.696;9.114;2022-07-06T07:02:28;4.17;;;3.83;;
1306;SDS011;646;48.696;9.114;2022-07-06T07:04:54;5.30;;;4.83;;
1306;SDS011;646;48.696;9.114;2022-07-06T07:07:19;5.10;;;4.80;;
1306;SDS011;646;48.696;9.114;2022-07-06T07:09:45;5.00;;;4.50;;
1306;SDS011;646;48.696;9.114;2022-07-06T07:12:11;5.17;;;4.73;;
1306;SDS011;646;48.696;9.114;2022-07-06T07:14:37;5.00;;;4.60;;
1306;SDS011;646;48.696;9.114;2022-07-06T07:17:02;4.47;;;4.17;;
1306;SDS011;646;48.696;9.114;2022-07-06T07:19:28;5.30;;;4.87;;
1306;SDS011;646;48.696;9.114;2022-07-06T07:21:54;8.10;;;5.00;;
1306;SDS011;646;48.696;9.114;2022-07-06T07:24:19;5.00;;;4.70;;
1306;SDS011;646;48.696;9.114;2022-07-06T07:26:45;5.07;;;4.57;;
1306;SDS011;646;48.696;9.114;2022-07-06T07:29:10;3.90;;;3.70;;
1306;SDS011;646;48.696;9.114;2022-07-06T07:31:36;5.10;;;4.60;;
1306;SDS011;646;48.696;9.114;2022-07-06T07:34:01;4.67;;;4.37;;
1306;SDS011;646;48.696;9.114;2022-07-06T07:36:27;6.87;;;5.33;;
1306;SDS011;646;48.696;9.114;2022-07-06T07:38:52;5.37;;;5.00;;
1306;SDS011;646;48.696;9.114;2022-07-06T07:41:18;5.33;;;5.00;;
1306;SDS011;646;48.696;9.114;2022-07-06T07:43:43;5.80;;;5.30;;
1306;SDS011;646;48.696;9.114;2022-07-06T07:46:09;5.60;;;5.30;;
1306;SDS011;646;48.696;9.114;2022-07-06T07:48:35;4.83;;;4.53;;
1306;SDS011;646;48.696;9.114;2022-07-06T07:51:00;5.33;;;4.50;;
1306;SDS011;646;48.696;9.114;2022-07-06T07:53:26;4.67;;;4.37;;
1306;SDS011;646;48.696;9.114;2022-07-06T07:55:52;5.50;;;5.10;;
1306;SDS011;646;48.696;9.114;2022-07-06T07:58:18;4.80;;;4.53;;
1306;SDS011;646;48.696;9.114;2022-07-06T08:00:44;5.20;;;4.70;;
1306;SDS011;646;48.696;9.114;2022-07-06T08:03:10;5.10;;;4.73;;
1306;SDS011;646;48.696;9.114;2022-07-06T08:05:36;5.20;;;4.70;;
1306;SDS011;646;48.696;9.114;2022-07-06T08:08:02;5.17;;;4.77;;
1306;SDS011;646;48.696;9.114;2022-07-06T08:10:27;4.83;;;4.53;;
1306;SDS011;646;48.696;9.114;2022-07-06T08:12:53;5.07;;;4.77;;
1306;SDS011;646;48.696;9.114;2022-07-06T08:15:18;5.00;;;4.60;;
1306;SDS011;646;48.696;9.114;2022-07-06T08:17:44;5.87;;;4.93;;
1306;SDS011;646;48.696;9.114;2022-07-06T08:20:10;4.70;;;4.40;;
1306;SDS011;646;48.696;9.114;2022-07-06T08:22:36;5.57;;;5.00;;
1306;SDS011;646;48.696;9.114;2022-07-06T08:25:02;5.30;;;4.90;;
1306;SDS011;646;48.696;9.114;2022-07-06T08:27:29;4.73;;;4.43;;
1306;SDS011;646;48.696;9.114;2022-07-06T08:29:54;5.20;;;4.70;;
1306;SDS011;646;48.696;9.114;2022-07-06T08:32:20;5.40;;;4.90;;
1306;SDS011;646;48.696;9.114;2022-07-06T08:34:46;3.57;;;3.37;;
1306;SDS011;646;48.696;9.114;2022-07-06T08:37:12;4.30;;;4.10;;
1306;SDS011;646;48.696;9.114;2022-07-06T08:39:38;4.20;;;3.97;;
1306;SDS011;646;48.696;9.114;2022-07-06T08:42:04;4.50;;;4.30;;
1306;SDS011;646;48.696;9.114;2022-07-06T08:44:32;5.47;;;5.17;;
1306;SDS011;646;48.696;9.114;2022-07-06T08:47:00;4.23;;;3.93;;
1306;SDS011;646;48.696;9.114;2022-07-06T08:49:32;5.10;;;4.80;;
1306;SDS011;646;48.696;9.114;2022-07-06T08:51:59;4.50;;;4.20;;
1306;SDS011;646;48.696;9.114;2022-07-06T08:54:26;4.30;;;4.07;;
1306;SDS011;646;48.696;9.114;2022-07-06T08:56:52;3.73;;;3.53;;
1306;SDS011;646;48.696;9.114;2022-07-06T08:59:18;4.60;;;4.30;;
1306;SDS011;646;48.696;9.114;2022-07-06T09:01:44;4.43;;;4.23;;
1306;SDS011;646;48.696;9.114;2022-07-06T09:04:11;5.10;;;4.60;;
1306;SDS011;646;48.696;9.114;2022-07-06T09:06:39;3.97;;;3.67;;
1306;SDS011;646;48.696;9.114;2022-07-06T09:09:07;5.37;;;4.33;;
1306;SDS011;646;48.696;9.114;2022-07-06T09:11:34;4.03;;;3.73;;
1306;SDS011;646;48.696;9.114;2022-07-06T09:14:00;4.20;;;3.90;;
1306;SDS011;646;48.696;9.114;2022-07-06T09:16:27;4.00;;;3.70;;
1306;SDS011;646;48.696;9.114;2022-07-06T09:18:54;3.93;;;3.63;;
1306;SDS011;646;48.696;9.114;2022-07-06T09:21:30;5.03;;;4.43;;
1306;SDS011;646;48.696;9.114;2022-07-06T09:23:57;3.30;;;3.10;;
1306;SDS011;646;48.696;9.114;2022-07-06T09:26:24;3.90;;;3.40;;
1306;SDS011;646;48.696;9.114;2022-07-06T09:28:52;4.70;;;3.83;;
1306;SDS011;646;48.696;9.114;2022-07-06T09:31:19;5.30;;;4.77;;
1306;SDS011;646;48.696;9.114;2022-07-06T09:33:55;4.90;;;4.50;;
1306;SDS011;646;48.696;9.114;2022-07-06T09:36:37;3.83;;;3.63;;
1306;SDS011;646;48.696;9.114;2022-07-06T09:42:05;4.97;;;4.57;;
1306;SDS011;646;48.696;9.114;2022-07-06T09:44:36;4.97;;;4.50;;
1306;SDS011;646;48.696;9.114;2022-07-06T09:47:04;4.37;;;4.07;;
1306;SDS011;646;48.696;9.114;2022-07-06T09:49:32;3.80;;;3.50;;
1306;SDS011;646;48.696;9.114;2022-07-06T09:51:58;4.50;;;3.80;;
1306;SDS011;646;48.696;9.114;2022-07-06T09:54:26;3.97;;;3.67;;
1306;SDS011;646;48.696;9.114;2022-07-06T09:56:52;4.23;;;3.83;;
1306;SDS011;646;48.696;9.114;2022-07-06T09:59:19;4.23;;;3.93;;
1306;SDS011;646;48.696;9.114;2022-07-06T10:01:59;4.50;;;4.10;;
1306;SDS011;646;48.696;9.114;2022-07-06T10:04:28;4.00;;;3.70;;
1306;SDS011;646;48.696;9.114;2022-07-06T10:06:54;4.30;;;4.00;;
1306;SDS011;646;48.696;9.114;2022-07-06T10:09:21;4.13;;;3.83;;
1306;SDS011;646;48.696;9.114;2022-07-06T10:11:52;4.60;;;3.70;;
1306;SDS011;646;48.696;9.114;2022-07-06T10:14:26;5.00;;;4.03;;
1306;SDS011;646;48.696;9.114;2022-07-06T10:16:54;4.20;;;3.80;;
1306;SDS011;646;48.696;9.114;2022-07-06T10:19:25;4.70;;;4.20;;
1306;SDS011;646;48.696;9.114;2022-07-06T10:21:52;4.37;;;3.83;;
1306;SDS011;646;48.696;9.114;2022-07-06T10:24:18;4.10;;;3.80;;
1306;SDS011;646;48.696;9.114;2022-07-06T10:26:47;4.37;;;3.97;;
1306;SDS011;646;48.696;9.114;2022-07-06T10:29:13;4.40;;;4.20;;
1306;SDS011;646;48.696;9.114;2022-07-06T10:31:40;3.80;;;3.50;;
1306;SDS011;646;48.696;9.114;2022-07-06T10:34:09;5.07;;;4.53;;
1306;SDS011;646;48.696;9.114;2022-07-06T10:36:38;5.00;;;4.60;;
1306;SDS011;646;48.696;9.114;2022-07-06T10:39:05;5.27;;;4.87;;
1306;SDS011;646;48.696;9.114;2022-07-06T10:41:51;4.60;;;4.20;;
1306;SDS011;646;48.696;9.114;2022-07-06T10:44:17;5.43;;;4.93;;
1306;SDS011;646;48.696;9.114;2022-07-06T10:46:51;5.80;;;4.60;;
1306;SDS011;646;48.696;9.114;2022-07-06T10:49:22;4.77;;;4.37;;
1306;SDS011;646;48.696;9.114;2022-07-06T10:51:49;5.27;;;4.77;;
1306;SDS011;646;48.696;9.114;2022-07-06T10:54:15;4.70;;;4.40;;
1306;SDS011;646;48.696;9.114;2022-07-06T10:56:43;4.93;;;4.47;;
1306;SDS011;646;48.696;9.114;2022-07-06T10:59:17;5.67;;;5.07;;
1306;SDS011;646;48.696;9.114;2022-07-06T11:04:43;5.03;;;4.63;;
1306;SDS011;646;48.696;9.114;2022-07-06T11:07:10;5.77;;;4.13;;
1306;SDS011;646;48.696;9.114;2022-07-06T11:09:37;5.23;;;4.83;;
1306;SDS011;646;48.696;9.114;2022-07-06T11:12:16;5.00;;;4.60;;
1306;SDS011;646;48.696;9.114;2022-07-06T11:14:43;3.90;;;3.70;;
1306;SDS011;646;48.696;9.114;2022-07-06T11:17:10;4.50;;;4.20;;
1306;SDS011;646;48.696;9.114;2022-07-06T11:19:36;5.80;;;4.73;;
1306;SDS011;646;48.696;9.114;2022-07-06T11:22:10;4.07;;;3.80;;
1306;SDS011;646;48.696;9.114;2022-07-06T11:24:37;4.77;;;4.10;;
1306;SDS011;646;48.696;9.114;2022-07-06T11:27:05;4.13;;;3.53;;
1306;SDS011;646;48.696;9.114;2022-07-06T11:29:32;3.97;;;3.70;;
1306;SDS011;646;48.696;9.114;2022-07-06T11:31:59;4.90;;;4.50;;
1306;SDS011;646;48.696;9.114;2022-07-06T11:34:33;5.00;;;4.60;;
1306;SDS011;646;48.696;9.114;2022-07-06T11:37:15;5.90;;;5.47;;
1306;SDS011;646;48.696;9.114;2022-07-06T11:39:43;4.60;;;4.20;;
1306;SDS011;646;48.696;9.114;2022-07-06T11:42:10;4.50;;;4.30;;
1306;SDS011;646;48.696;9.114;2022-07-06T11:44:37;5.40;;;5.00;;
1306;SDS011;646;48.696;9.114;2022-07-06T11:49:59;4.60;;;4.20;;
1306;SDS011;646;48.696;9.114;2022-07-06T11:52:24;4.60;;;4.40;;
1306;SDS011;646;48.696;9.114;2022-07-06T11:54:56;4.40;;;4.10;;
1306;SDS011;646;48.696;9.114;2022-07-06T11:57:24;4.80;;;4.40;;
1306;SDS011;646;48.696;9.114;2022-07-06T11:59:49;4.07;;;3.80;;
1306;SDS011;646;48.696;9.114;2022-07-06T12:02:16;4.53;;;4.13;;
1306;SDS011;646;48.696;9.114;2022-07-06T12:04:43;5.40;;;4.90;;
1306;SDS011;646;48.696;9.114;2022-07-06T12:07:10;5.50;;;5.10;;
1306;SDS011;646;48.696;9.114;2022-07-06T12:09:38;5.23;;;4.80;;
1306;SDS011;646;48.696;9.114;2022-07-06T12:12:05;6.10;;;5.70;;
1306;SDS011;646;48.696;9.114;2022-07-06T12:14:32;4.70;;;4.40;;
1306;SDS011;646;48.696;9.114;2022-07-06T12:17:02;5.70;;;5.00;;
1306;SDS011;646;48.696;9.114;2022-07-06T12:19:29;5.30;;;4.90;;
1306;SDS011;646;48.696;9.114;2022-07-06T12:21:55;5.80;;;5.03;;
1306;SDS011;646;48.696;9.114;2022-07-06T12:24:22;5.67;;;5.20;;
1306;SDS011;646;48.696;9.114;2022-07-06T12:26:49;4.90;;;4.60;;
1306;SDS011;646;48.696;9.114;2022-07-06T12:29:16;5.57;;;5.07;;
1306;SDS011;646;48.696;9.114;2022-07-06T12:31:49;6.13;;;5.50;;
1306;SDS011;646;48.696;9.114;2022-07-06T12:34:19;5.47;;;4.93;;
1306;SDS011;646;48.696;9.114;2022-07-06T12:36:53;5.37;;;4.97;;
1306;SDS011;646;48.696;9.114;2022-07-06T12:39:23;5.87;;;5.37;;
1306;SDS011;646;48.696;9.114;2022-07-06T12:41:53;5.40;;;4.63;;
1306;SDS011;646;48.696;9.114;2022-07-06T12:44:26;8.70;;;4.80;;
1306;SDS011;646;48.696;9.114;2022-07-06T12:47:04;4.60;;;4.20;;
1306;SDS011;646;48.696;9.114;2022-07-06T12:49:31;5.40;;;4.90;;
1306;SDS011;646;48.696;9.114;2022-07-06T12:54:25;5.30;;;4.90;;
1306;SDS011;646;48.696;9.114;2022-07-06T12:56:55;5.53;;;5.23;;
1306;SDS011;646;48.696;9.114;2022-07-06T12:59:30;5.10;;;4.63;;
1306;SDS011;646;48.696;9.114;2022-07-06T13:01:56;4.53;;;4.30;;
1306;SDS011;646;48.696;9.114;2022-07-06T13:04:26;4.40;;;4.10;;
1306;SDS011;646;48.696;9.114;2022-07-06T13:06:52;5.40;;;4.90;;
1306;SDS011;646;48.696;9.114;2022-07-06T13:09:18;4.83;;;4.43;;
1306;SDS011;646;48.696;9.114;2022-07-06T13:11:45;6.03;;;4.70;;
1306;SDS011;646;48.696;9.114;2022-07-06T13:14:11;5.30;;;4.90;;
1306;SDS011;646;48.696;9.114;2022-07-06T13:16:37;4.43;;;4.13;;
1306;SDS011;646;48.696;9.114;2022-07-06T13:19:03;5.10;;;4.70;;
1306;SDS011;646;48.696;9.114;2022-07-06T13:21:28;5.20;;;4.70;;
1306;SDS011;646;48.696;9.114;2022-07-06T13:23:54;4.50;;;4.20;;
1306;SDS011;646;48.696;9.114;2022-07-06T13:26:20;4.70;;;4.40;;
1306;SDS011;646;48.696;9.114;2022-07-06T13:28:46;5.57;;;5.13;;
1306;SDS011;646;48.696;9.114;2022-07-06T13:31:11;7.83;;;5.37;;
1306;SDS011;646;48.696;9.114;2022-07-06T13:33:37;4.90;;;4.50;;
1306;SDS011;646;48.696;9.114;2022-07-06T13:36:02;4.50;;;4.20;;
1306;SDS011;646;48.696;9.114;2022-07-06T13:38:28;4.90;;;4.50;;
1306;SDS011;646;48.696;9.114;2022-07-06T13:40:54;4.60;;;4.20;;
1306;SDS011;646;48.696;9.114;2022-07-06T13:43:20;4.90;;;4.50;;
1306;SDS011;646;48.696;9.114;2022-07-06T13:45:46;5.17;;;4.63;;
1306;SDS011;646;48.696;9.114;2022-07-06T13:48:12;4.53;;;4.20;;
1306;SDS011;646;48.696;9.114;2022-07-06T13:50:37;4.93;;;4.47;;
1306;SDS011;646;48.696;9.114;2022-07-06T13:53:03;5.13;;;4.63;;
1306;SDS011;646;48.696;9.114;2022-07-06T13:55:29;5.10;;;4.70;;
1306;SDS011;646;48.696;9.114;2022-07-06T13:57:55;5.13;;;4.10;;
1306;SDS011;646;48.696;9.114;2022-07-06T14:00:21;15.03;;;5.57;;
1306;SDS011;646;48.696;9.114;2022-07-06T14:02:46;4.90;;;4.50;;
1306;SDS011;646;48.696;9.114;2022-07-06T14:05:12;7.87;;;4.77;;
1306;SDS011;646;48.696;9.114;2022-07-06T14:07:38;4.53;;;4.20;;
1306;SDS011;646;48.696;9.114;2022-07-06T14:10:04;4.30;;;4.07;;
1306;SDS011;646;48.696;9.114;2022-07-06T14:12:29;3.87;;;3.67;;
1306;SDS011;646;48.696;9.114;2022-07-06T14:14:55;3.87;;;3.60;;
1306;SDS011;646;48.696;9.114;2022-07-06T14:17:21;3.70;;;3.50;;
1306;SDS011;646;48.696;9.114;2022-07-06T14:19:47;4.50;;;4.20;;
1306;SDS011;646;48.696;9.114;2022-07-06T14:22:13;3.70;;;3.40;;
1306;SDS011;646;48.696;9.114;2022-07-06T14:24:39;3.53;;;3.33;;
1306;SDS011;646;48.696;9.114;2022-07-06T14:27:04;3.73;;;3.47;;
1306;SDS011;646;48.696;9.114;2022-07-06T14:29:30;3.87;;;3.67;;
1306;SDS011;646;48.696;9.114;2022-07-06T14:31:55;3.90;;;3.60;;
1306;SDS011;646;48.696;9.114;2022-07-06T14:34:21;3.70;;;3.40;;
1306;SDS011;646;48.696;9.114;2022-07-06T14:36:46;4.10;;;3.80;;
1306;SDS011;646;48.696;9.114;2022-07-06T14:39:12;3.93;;;3.60;;
1306;SDS011;646;48.696;9.114;2022-07-06T14:41:38;4.00;;;3.60;;
1306;SDS011;646;48.696;9.114;2022-07-06T14:44:04;3.87;;;3.57;;
1306;SDS011;646;48.696;9.114;2022-07-06T14:46:30;3.57;;;3.37;;
1306;SDS011;646;48.696;9.114;2022-07-06T14:48:56;3.87;;;3.63;;
1306;SDS011;646;48.696;9.114;2022-07-06T14:51:21;3.40;;;3.20;;
1306;SDS011;646;48.696;9.114;2022-07-06T14:53:47;3.30;;;3.10;;
1306;SDS011;646;48.696;9.114;2022-07-06T14:56:13;3.50;;;3.30;;
1306;SDS011;646;48.696;9.114;2022-07-06T14:58:39;3.90;;;3.70;;
1306;SDS011;646;48.696;9.114;2022-07-06T15:01:04;3.63;;;3.43;;
1306;SDS011;646;48.696;9.114;2022-07-06T15:03:30;3.97;;;3.77;;
1306;SDS011;646;48.696;9.114;2022-07-06T15:05:55;3.87;;;3.60;;
1306;SDS011;646;48.696;9.114;2022-07-06T15:08:21;3.73;;;3.53;;
1306;SDS011;646;48.696;9.114;2022-07-06T15:10:46;3.70;;;3.50;;
1306;SDS011;646;48.696;9.114;2022-07-06T15:13:13;3.40;;;3.13;;
1306;SDS011;646;48.696;9.114;2022-07-06T15:15:38;3.70;;;3.50;;
1306;SDS011;646;48.696;9.114;2022-07-06T15:18:04;3.73;;;3.53;;
1306;SDS011;646;48.696;9.114;2022-07-06T15:20:30;3.53;;;3.33;;
1306;SDS011;646;48.696;9.114;2022-07-06T15:22:55;5.00;;;3.30;;
1306;SDS011;646;48.696;9.114;2022-07-06T15:25:21;3.53;;;3.23;;
1306;SDS011;646;48.696;9.114;2022-07-06T15:27:49;3.47;;;3.27;;
1306;SDS011;646;48.696;9.114;2022-07-06T15:30:15;3.20;;;3.00;;
1306;SDS011;646;48.696;9.114;2022-07-06T15:32:41;3.63;;;3.43;;
1306;SDS011;646;48.696;9.114;2022-07-06T15:35:07;3.73;;;3.43;;
1306;SDS011;646;48.696;9.114;2022-07-06T15:37:33;3.13;;;3.03;;